Time;durP1;ratioP1;P1;durP2;ratioP2;P2;SDS_P1;SDS_P2;PMS_P1;PMS_P2;Temp;Humidity;BMP_temperature;BMP_pressure;BME280_temperature;BME280_humidity;BME280_pressure;Samples;Min_cycle;Max_cycle;Signal;HPM_P1;HPM_P2
2023/02/14 00:00:10;;;;;;;39.13;24.02;;;4.60;99.90;;;;;;4879267;29;20041;-89
2023/02/14 00:02:35;;;;;;;38.17;24.15;;;4.50;99.90;;;;;;4862684;29;20474;-89
2023/02/14 00:05:01;;;;;;;38.58;24.38;;;4.50;99.90;;;;;;4878318;29;20045;-89
2023/02/14 00:07:27;;;;;;;37.00;23.88;;;4.40;99.90;;;;;;4878661;29;20111;-89
2023/02/14 00:09:52;;;;;;;36.95;24.10;;;4.40;99.90;;;;;;4879163;29;20044;-89
2023/02/14 00:12:18;;;;;;;39.90;25.17;;;4.40;99.90;;;;;;4861094;29;20044;-89
2023/02/14 00:17:28;;;;;;;36.80;24.15;;;4.40;99.90;;;;;;4878082;29;20386;-89
2023/02/14 00:19:53;;;;;;;38.05;24.30;;;4.40;99.90;;;;;;4862740;29;20059;-89
2023/02/14 00:22:19;;;;;;;39.33;24.60;;;4.40;99.90;;;;;;4861828;29;20558;-88
2023/02/14 00:24:44;;;;;;;37.15;24.02;;;4.30;99.90;;;;;;4876719;29;20128;-89
2023/02/14 00:27:10;;;;;;;40.20;25.75;;;4.30;99.90;;;;;;4878691;29;20129;-89
2023/02/14 00:29:36;;;;;;;35.75;24.17;;;4.30;99.90;;;;;;4877542;29;20402;-88
2023/02/14 00:32:01;;;;;;;33.45;23.05;;;4.30;99.90;;;;;;4876811;29;20045;-88
2023/02/14 00:34:27;;;;;;;36.38;23.08;;;4.30;99.90;;;;;;4878650;29;20084;-89
2023/02/14 00:36:53;;;;;;;35.22;24.17;;;4.30;99.90;;;;;;4877600;29;20053;-89
2023/02/14 00:39:19;;;;;;;37.90;25.20;;;4.30;99.90;;;;;;4861118;29;20438;-88
2023/02/14 00:41:45;;;;;;;37.35;23.25;;;4.20;99.90;;;;;;4862557;29;20088;-89
2023/02/14 00:44:11;;;;;;;32.08;22.70;;;4.30;99.90;;;;;;4877605;29;20049;-89
2023/02/14 00:46:37;;;;;;;31.98;21.80;;;4.20;99.90;;;;;;4878299;29;20093;-89
2023/02/14 00:49:03;;;;;;;36.05;23.33;;;4.20;99.90;;;;;;4862371;29;20041;-89
2023/02/14 00:51:29;;;;;;;32.90;22.60;;;4.20;99.90;;;;;;4862355;29;20084;-89
2023/02/14 00:53:54;;;;;;;34.47;23.40;;;4.20;99.90;;;;;;4876367;29;20141;-89
2023/02/14 00:56:21;;;;;;;35.00;22.30;;;4.20;99.90;;;;;;4861858;29;20053;-89
2023/02/14 00:58:47;;;;;;;36.40;24.27;;;4.20;99.90;;;;;;4877824;29;20104;-89
2023/02/14 01:01:13;;;;;;;34.90;23.95;;;4.20;99.90;;;;;;4862031;29;20157;-88
2023/02/14 01:03:39;;;;;;;38.55;24.27;;;4.20;99.90;;;;;;4862290;29;20049;-89
2023/02/14 01:06:05;;;;;;;34.72;22.73;;;4.10;99.90;;;;;;4878751;29;20049;-90
2023/02/14 01:08:31;;;;;;;33.17;22.27;;;4.10;99.90;;;;;;4872226;29;20482;-89
2023/02/14 01:10:57;;;;;;;34.63;22.38;;;4.10;99.90;;;;;;4867640;29;20097;-89
2023/02/14 01:13:23;;;;;;;34.83;22.30;;;4.10;99.90;;;;;;4879994;29;20052;-87
2023/02/14 01:15:50;;;;;;;37.13;22.58;;;4.10;99.90;;;;;;4865054;29;20524;-89
2023/02/14 01:18:17;;;;;;;32.17;21.55;;;4.10;99.90;;;;;;4880830;29;20041;-88
2023/02/14 01:20:43;;;;;;;34.50;22.35;;;4.10;99.90;;;;;;4881425;29;20056;-89
2023/02/14 01:23:09;;;;;;;32.90;22.88;;;4.10;99.90;;;;;;4881553;29;20049;-88
2023/02/14 01:25:40;;;;;;;34.03;23.05;;;4.00;99.90;;;;;;4882062;29;20064;-89
2023/02/14 01:28:06;;;;;;;37.53;24.02;;;4.10;99.90;;;;;;4880189;29;20064;-89
2023/02/14 01:30:31;;;;;;;36.20;23.52;;;4.00;99.90;;;;;;4880355;29;20060;-88
2023/02/14 01:32:57;;;;;;;34.35;21.95;;;4.00;99.90;;;;;;4865085;29;20053;-89
2023/02/14 01:35:23;;;;;;;35.65;23.20;;;4.00;99.90;;;;;;4863505;29;20128;-89
2023/02/14 01:37:49;;;;;;;34.05;22.05;;;4.00;99.90;;;;;;4880782;29;20459;-89
2023/02/14 01:40:14;;;;;;;35.15;23.30;;;4.00;99.90;;;;;;4880486;29;20048;-89
2023/02/14 01:42:40;;;;;;;34.75;22.70;;;4.00;99.90;;;;;;4881353;29;20041;-89
2023/02/14 01:45:20;;;;;;;32.72;22.08;;;4.00;99.90;;;;;;4864338;29;20530;-89
2023/02/14 01:47:50;;;;;;;33.22;21.45;;;4.00;99.90;;;;;;4865006;29;20072;-89
2023/02/14 01:50:30;;;;;;;32.58;21.30;;;3.90;99.90;;;;;;4880841;29;20139;-89
2023/02/14 01:53:25;;;;;;;31.77;22.33;;;4.00;99.90;;;;;;4866265;29;20056;-89
2023/02/14 01:56:10;;;;;;;34.03;21.77;;;3.90;99.90;;;;;;4861288;29;20072;-89
2023/02/14 01:58:39;;;;;;;33.10;22.63;;;3.90;99.90;;;;;;4880319;29;20049;-89
2023/02/14 02:01:05;;;;;;;34.15;21.63;;;3.90;99.90;;;;;;4881519;29;20123;-89
2023/02/14 02:03:38;;;;;;;33.22;22.10;;;3.90;99.90;;;;;;4864028;29;20517;-89
2023/02/14 02:06:21;;;;;;;31.67;21.10;;;3.90;99.90;;;;;;4881498;29;20045;-89
2023/02/14 02:09:06;;;;;;;33.88;21.92;;;3.90;99.90;;;;;;4881203;29;20056;-89
2023/02/14 02:11:32;;;;;;;36.45;22.88;;;3.90;99.90;;;;;;4876897;29;20070;-89
2023/02/14 02:13:58;;;;;;;35.53;23.45;;;3.90;99.90;;;;;;4855396;29;20060;-89
2023/02/14 02:16:42;;;;;;;34.80;22.98;;;3.90;99.90;;;;;;4879824;29;20049;-89
2023/02/14 02:19:40;;;;;;;34.05;22.45;;;3.90;99.90;;;;;;4879911;29;20045;-88
2023/02/14 02:22:17;;;;;;;33.28;22.08;;;3.80;99.90;;;;;;4880727;29;20037;-89
2023/02/14 02:25:13;;;;;;;34.65;21.90;;;3.80;99.90;;;;;;4878937;29;20037;-88
2023/02/14 02:28:16;;;;;;;34.22;21.13;;;3.80;99.90;;;;;;4846721;29;20099;-88
2023/02/14 02:31:07;;;;;;;33.00;21.60;;;3.80;99.90;;;;;;4879305;29;20061;-88
2023/02/14 02:34:00;;;;;;;31.17;20.85;;;3.80;99.90;;;;;;4880796;29;20498;-89
2023/02/14 02:36:38;;;;;;;33.57;21.60;;;3.80;99.90;;;;;;4864072;29;20088;-88
2023/02/14 02:39:39;;;;;;;33.03;20.80;;;3.80;99.90;;;;;;4879810;29;20549;-88
2023/02/14 02:42:07;;;;;;;30.08;21.05;;;3.80;99.90;;;;;;4880109;29;20089;-89
2023/02/14 02:44:50;;;;;;;27.83;19.42;;;3.80;99.90;;;;;;4879390;29;20478;-89
2023/02/14 02:47:39;;;;;;;36.65;22.23;;;3.70;99.90;;;;;;4920325;23;20054;-89
2023/02/14 02:53:45;;;;;;;29.63;20.15;;;3.70;99.90;;;;;;4881240;29;20079;-89
2023/02/14 02:56:47;;;;;;;29.10;19.98;;;3.70;99.90;;;;;;4881467;29;20497;-88
2023/02/14 02:59:30;;;;;;;32.95;21.05;;;3.70;99.90;;;;;;4882484;29;20799;-89
2023/02/14 03:04:46;;;;;;;34.45;21.00;;;3.60;99.90;;;;;;4899018;29;20053;-88
2023/02/14 03:05:18;;;;;;;32.28;20.83;;;3.60;99.90;;;;;;4822716;29;20106;-88
2023/02/14 03:07:47;;;;;;;34.50;20.90;;;3.60;99.90;;;;;;4894000;29;20060;-87
2023/02/14 03:10:20;;;;;;;33.03;20.75;;;3.70;99.90;;;;;;4878885;29;20049;-88
2023/02/14 03:13:08;;;;;;;31.25;21.52;;;3.60;99.90;;;;;;4898944;29;20048;-88
2023/02/14 03:15:36;;;;;;;31.02;20.77;;;3.60;99.90;;;;;;4898170;29;20053;-89
2023/02/14 03:18:24;;;;;;;33.05;20.70;;;3.60;99.90;;;;;;4874758;23;20060;-89
2023/02/14 03:20:56;;;;;;;30.17;20.25;;;3.60;99.90;;;;;;4843947;29;20089;-88
2023/02/14 03:23:29;;;;;;;31.10;20.23;;;3.60;99.90;;;;;;4861234;29;20045;-89
2023/02/14 03:26:09;;;;;;;33.47;20.67;;;3.60;99.90;;;;;;4844284;29;20045;-89
2023/02/14 03:28:58;;;;;;;31.80;20.40;;;3.50;99.90;;;;;;4859765;29;20764;-89
2023/02/14 03:32:14;;;;;;;29.95;20.02;;;3.60;99.90;;;;;;4860100;29;20053;-89
2023/02/14 03:34:58;;;;;;;31.55;20.20;;;3.50;99.90;;;;;;4845126;29;20061;-88
2023/02/14 03:37:42;;;;;;;31.40;20.17;;;3.50;99.90;;;;;;4854823;29;20079;-89
2023/02/14 03:40:09;;;;;;;;;;;3.50;99.90;;;;;;4917736;23;20007;-89
2023/02/14 03:42:53;;;;;;;29.17;19.30;;;3.40;99.90;;;;;;4877631;29;19924;-89
2023/02/14 03:45:34;;;;;;;29.35;19.23;;;3.40;99.90;;;;;;4873006;29;20128;-89
2023/02/14 03:48:06;;;;;;;31.38;20.38;;;3.40;99.90;;;;;;4858812;29;20577;-89
2023/02/14 03:50:35;;;;;;;29.60;19.27;;;3.40;99.90;;;;;;4871046;29;20112;-89
2023/02/14 03:53:02;;;;;;;26.95;18.35;;;3.40;99.90;;;;;;4877286;29;20399;-88
2023/02/14 03:55:54;;;;;;;30.75;19.67;;;3.40;99.90;;;;;;4865586;29;20886;-90
2023/02/14 03:58:27;;;;;;;27.55;18.40;;;3.40;99.90;;;;;;4861555;29;20494;-90
2023/02/14 04:01:03;;;;;;;33.90;19.80;;;3.40;99.90;;;;;;4861483;29;20041;-89
2023/02/14 04:03:31;;;;;;;28.17;19.10;;;3.40;99.90;;;;;;4838872;29;20088;-89
2023/02/14 04:05:57;;;;;;;31.42;19.95;;;3.30;99.90;;;;;;4864521;29;20379;-89
2023/02/14 04:08:26;;;;;;;30.98;20.13;;;3.40;99.90;;;;;;4859977;29;20410;-89
2023/02/14 04:10:52;;;;;;;32.03;20.23;;;3.30;99.90;;;;;;4866451;29;20045;-89
2023/02/14 04:13:19;;;;;;;26.38;18.42;;;3.30;99.90;;;;;;4861165;29;20041;-89
2023/02/14 04:15:44;;;;;;;27.38;19.13;;;3.30;99.90;;;;;;4859386;29;20041;-89
2023/02/14 04:20:54;;;;;;;28.05;18.25;;;3.30;99.90;;;;;;4867534;29;20053;-89
2023/02/14 04:23:20;;;;;;;29.17;17.85;;;3.30;99.90;;;;;;4858324;29;20037;-89
2023/02/14 04:25:48;;;;;;;29.38;18.42;;;3.30;99.90;;;;;;4862242;29;20383;-89
2023/02/14 04:28:14;;;;;;;28.10;18.52;;;3.20;99.90;;;;;;4860938;29;20033;-89
2023/02/14 04:30:39;;;;;;;29.00;19.13;;;3.30;99.90;;;;;;4856862;29;20517;-89
2023/02/14 04:33:06;;;;;;;29.92;19.05;;;3.30;99.90;;;;;;4877985;29;20051;-89
2023/02/14 04:35:33;;;;;;;29.08;18.90;;;3.30;99.90;;;;;;4844450;29;20049;-89
2023/02/14 04:38:00;;;;;;;31.83;19.65;;;3.30;99.90;;;;;;4854059;29;20439;-89
2023/02/14 04:40:26;;;;;;;30.55;19.40;;;3.30;99.90;;;;;;4822432;29;1286690;-88
2023/02/14 04:42:51;;;;;;;28.48;19.42;;;3.20;99.90;;;;;;4861565;29;20045;-89
2023/02/14 04:45:17;;;;;;;27.73;19.23;;;3.20;99.90;;;;;;4880286;29;20041;-89
2023/02/14 04:47:43;;;;;;;26.27;18.38;;;3.30;99.90;;;;;;4853915;29;20149;-89
2023/02/14 04:50:08;;;;;;;29.58;18.30;;;3.20;99.90;;;;;;4864404;29;20520;-89
2023/02/14 04:52:34;;;;;;;30.00;19.00;;;3.20;99.90;;;;;;4851242;29;20516;-89
2023/02/14 04:55:00;;;;;;;27.42;18.38;;;3.20;99.90;;;;;;4864485;29;20045;-89
2023/02/14 04:57:25;;;;;;;28.85;20.20;;;3.20;99.90;;;;;;4853340;29;20395;-88
2023/02/14 04:59:51;;;;;;;28.73;18.63;;;3.20;99.90;;;;;;4853202;29;20072;-89
2023/02/14 05:02:17;;;;;;;29.67;19.58;;;3.10;99.90;;;;;;4869893;29;20046;-90
2023/02/14 05:04:42;;;;;;;28.98;18.67;;;3.20;99.90;;;;;;4851753;29;20049;-90
2023/02/14 05:07:08;;;;;;;28.08;17.83;;;3.10;99.90;;;;;;4865014;29;20433;-93
2023/02/14 05:09:34;;;;;;;27.30;18.35;;;3.10;99.90;;;;;;4865061;29;20046;-93
2023/02/14 05:11:59;;;;;;;31.25;19.58;;;3.10;99.90;;;;;;4874142;29;20443;-91
2023/02/14 05:14:30;;;;;;;26.48;18.15;;;3.10;99.90;;;;;;4867612;29;20405;-93
2023/02/14 05:16:59;;;;;;;25.92;17.95;;;3.10;99.90;;;;;;4882330;29;20581;-92
2023/02/14 05:19:25;;;;;;;27.10;17.95;;;3.10;99.90;;;;;;4866522;29;20049;-92
2023/02/14 05:21:50;;;;;;;27.15;17.83;;;3.10;99.90;;;;;;4883209;29;20041;-92
2023/02/14 05:24:16;;;;;;;27.70;18.65;;;3.10;99.90;;;;;;4883576;29;20128;-94
2023/02/14 05:26:41;;;;;;;25.63;18.27;;;3.00;99.90;;;;;;4867348;29;20049;-92
2023/02/14 05:29:07;;;;;;;28.42;18.48;;;3.00;99.90;;;;;;4883842;29;20052;-92
2023/02/14 05:31:33;;;;;;;27.58;18.58;;;3.00;99.90;;;;;;4859008;29;20056;-92
2023/02/14 05:33:59;;;;;;;28.45;18.60;;;3.00;99.90;;;;;;4855999;29;20037;-91
2023/02/14 05:36:25;;;;;;;27.67;18.15;;;3.00;99.90;;;;;;4873017;29;20045;-92
2023/02/14 05:38:50;;;;;;;28.83;18.90;;;3.00;99.90;;;;;;4853103;29;20050;-91
2023/02/14 05:41:16;;;;;;;31.63;19.30;;;3.00;99.90;;;;;;4847998;29;20065;-92
2023/02/14 05:43:45;;;;;;;28.23;18.27;;;3.00;99.90;;;;;;4847472;29;20053;-92
2023/02/14 05:46:10;;;;;;;29.13;18.92;;;2.90;99.90;;;;;;4853470;29;20042;-92
2023/02/14 05:48:36;;;;;;;25.73;17.05;;;2.90;99.90;;;;;;4871114;29;20048;-92
2023/02/14 05:51:08;;;;;;;25.48;17.65;;;2.90;99.90;;;;;;4858438;29;20108;-91
2023/02/14 05:53:34;;;;;;;28.00;18.27;;;2.90;99.90;;;;;;4865805;29;20189;-90
2023/02/14 05:56:00;;;;;;;26.85;17.85;;;2.90;99.90;;;;;;4849903;29;20553;-92
2023/02/14 05:58:26;;;;;;;24.55;17.27;;;2.90;99.90;;;;;;4858500;29;20045;-90
2023/02/14 06:00:51;;;;;;;28.50;18.98;;;2.90;99.90;;;;;;4853615;29;20047;-91
2023/02/14 06:03:17;;;;;;;26.77;17.45;;;2.80;99.90;;;;;;4881764;29;20041;-91
2023/02/14 06:05:48;;;;;;;23.27;16.23;;;2.80;99.90;;;;;;4859627;29;20053;-91
2023/02/14 06:08:14;;;;;;;25.35;17.35;;;2.80;99.90;;;;;;4863929;29;20052;-90
2023/02/14 06:10:40;;;;;;;26.75;17.13;;;2.80;99.90;;;;;;4860266;29;20042;-91
2023/02/14 06:13:07;;;;;;;26.30;17.42;;;2.80;99.90;;;;;;4866462;29;20466;-90
2023/02/14 06:15:36;;;;;;;24.48;16.55;;;2.70;99.90;;;;;;4876227;29;20049;-90
2023/02/14 06:18:03;;;;;;;27.25;17.17;;;2.80;99.90;;;;;;4864193;29;20049;-90
2023/02/14 06:20:29;;;;;;;24.83;16.88;;;2.70;99.90;;;;;;4852136;29;20430;-90
2023/02/14 06:22:56;;;;;;;23.83;17.08;;;2.70;99.90;;;;;;4864923;29;20056;-90
2023/02/14 06:25:27;;;;;;;25.88;17.60;;;2.70;99.90;;;;;;4848681;29;20045;-90
2023/02/14 06:27:57;;;;;;;23.70;16.17;;;2.70;99.90;;;;;;4863976;29;20138;-90
2023/02/14 06:30:23;;;;;;;24.75;16.70;;;2.70;99.90;;;;;;4847456;29;20045;-91
2023/02/14 06:32:49;;;;;;;23.90;15.95;;;2.70;99.90;;;;;;4848324;29;20101;-90
2023/02/14 06:35:15;;;;;;;26.30;17.35;;;2.70;99.90;;;;;;4847225;29;20049;-90
2023/02/14 06:37:41;;;;;;;24.92;15.52;;;2.70;99.90;;;;;;4854116;29;20072;-90
2023/02/14 06:40:08;;;;;;;22.17;14.82;;;2.70;99.90;;;;;;4863766;29;20051;-88
2023/02/14 06:42:34;;;;;;;23.75;16.70;;;2.60;99.90;;;;;;4864968;29;20049;-90
2023/02/14 06:45:01;;;;;;;24.33;16.88;;;2.70;99.90;;;;;;4865592;29;20045;-90
2023/02/14 06:47:27;;;;;;;24.63;17.10;;;2.70;99.90;;;;;;4864996;29;20041;-91
2023/02/14 06:49:55;;;;;;;25.17;16.25;;;2.60;99.90;;;;;;4865421;29;20116;-91
2023/02/14 06:52:21;;;;;;;22.13;15.43;;;2.60;99.90;;;;;;4874598;29;20148;-91
2023/02/14 06:54:47;;;;;;;24.05;15.15;;;2.60;99.90;;;;;;4881679;29;20136;-90
2023/02/14 06:57:13;;;;;;;21.55;15.10;;;2.60;99.90;;;;;;4850083;29;20128;-89
2023/02/14 06:59:38;;;;;;;21.42;14.93;;;2.60;99.90;;;;;;4876662;23;20049;-91
2023/02/14 07:02:04;;;;;;;21.70;15.23;;;2.60;99.90;;;;;;4869606;29;20271;-90
2023/02/14 07:04:30;;;;;;;22.42;14.77;;;2.50;99.90;;;;;;4881461;29;20349;-91
2023/02/14 07:07:00;;;;;;;20.77;13.40;;;2.50;99.90;;;;;;4870735;29;20071;-91
2023/02/14 07:09:25;;;;;;;21.45;14.48;;;2.50;99.90;;;;;;4892076;29;20041;-91
2023/02/14 07:11:51;;;;;;;21.17;14.73;;;2.50;99.90;;;;;;4889861;29;20037;-93
2023/02/14 07:14:17;;;;;;;19.05;13.07;;;2.50;99.90;;;;;;5097773;23;20020;-95
2023/02/14 07:16:43;;;;;;;20.35;13.93;;;2.50;99.90;;;;;;4873031;29;20152;-91
2023/02/14 07:19:18;;;;;;;21.80;14.65;;;2.50;99.90;;;;;;4866577;29;20132;-90
2023/02/14 07:21:49;;;;;;;21.23;14.02;;;2.40;99.90;;;;;;4860194;29;20075;-88
2023/02/14 07:24:21;;;;;;;22.35;14.60;;;2.40;99.90;;;;;;4878975;29;20048;-92
2023/02/14 07:26:49;;;;;;;19.83;13.68;;;2.40;99.90;;;;;;4864283;29;20112;-91
2023/02/14 07:29:17;;;;;;;22.05;14.18;;;2.40;99.90;;;;;;4881242;29;20048;-91
2023/02/14 07:31:45;;;;;;;20.23;13.15;;;2.40;99.90;;;;;;4864528;29;20048;-91
2023/02/14 07:34:17;;;;;;;21.67;14.48;;;2.40;99.90;;;;;;4863924;29;20049;-91
2023/02/14 07:36:46;;;;;;;20.67;13.85;;;2.40;99.90;;;;;;4862325;29;20128;-92
2023/02/14 07:39:12;;;;;;;19.25;13.52;;;2.40;99.90;;;;;;4879569;29;20139;-92
2023/02/14 07:41:40;;;;;;;19.73;13.40;;;2.40;99.90;;;;;;4880478;29;20178;-92
2023/02/14 07:44:06;;;;;;;21.40;14.00;;;2.30;99.90;;;;;;4880506;29;20161;-92
2023/02/14 07:46:35;;;;;;;21.50;14.25;;;2.40;99.90;;;;;;4863955;29;20053;-92
2023/02/14 07:49:06;;;;;;;19.98;14.40;;;2.40;99.90;;;;;;4863816;29;20045;-91
2023/02/14 07:51:35;;;;;;;18.50;12.45;;;2.30;99.90;;;;;;4877588;29;20050;-91
2023/02/14 07:54:07;;;;;;;21.33;14.63;;;2.30;99.90;;;;;;4879644;29;20045;-93
2023/02/14 07:56:33;;;;;;;21.27;13.93;;;2.30;99.90;;;;;;4870403;29;20061;-92
2023/02/14 07:59:08;;;;;;;21.08;13.95;;;2.30;99.90;;;;;;4846290;29;20045;-91
2023/02/14 08:01:33;;;;;;;19.88;13.75;;;2.40;99.90;;;;;;4856361;29;20045;-92
2023/02/14 08:04:05;;;;;;;19.63;13.43;;;2.30;99.90;;;;;;4857412;29;20117;-89
2023/02/14 08:06:40;;;;;;;20.73;13.90;;;2.30;99.90;;;;;;4876837;29;20049;-88
2023/02/14 08:09:09;;;;;;;19.33;13.48;;;2.30;99.90;;;;;;4860514;29;20049;-90
2023/02/14 08:14:28;;;;;;;21.55;15.20;;;2.40;99.90;;;;;;4880510;29;20052;-88
2023/02/14 08:16:53;;;;;;;20.80;14.48;;;2.30;99.90;;;;;;4890739;23;20058;-89
2023/02/14 08:19:19;;;;;;;19.73;14.23;;;2.40;99.90;;;;;;4856282;29;20052;-89
2023/02/14 08:21:45;;;;;;;22.33;14.13;;;2.40;99.90;;;;;;4865720;29;20041;-89
2023/02/14 08:24:10;;;;;;;19.88;14.63;;;2.40;99.90;;;;;;4852549;29;20158;-89
2023/02/14 08:26:36;;;;;;;19.25;13.27;;;2.40;99.90;;;;;;4868079;29;20125;-88
2023/02/14 08:29:01;;;;;;;21.55;14.55;;;2.40;99.90;;;;;;4868278;29;20053;-91
2023/02/14 08:31:29;;;;;;;28.30;19.30;;;2.50;99.90;;;;;;4867722;29;20462;-90
2023/02/14 08:33:55;;;;;;;32.22;21.80;;;2.50;99.90;;;;;;4860965;29;20497;-91
2023/02/14 08:36:21;;;;;;;30.48;20.48;;;2.60;99.90;;;;;;4870221;29;20076;-91
2023/02/14 08:38:47;;;;;;;26.52;17.83;;;2.60;99.90;;;;;;4868850;29;20052;-93
2023/02/14 08:41:14;;;;;;;27.58;19.35;;;2.70;99.90;;;;;;4869716;29;20056;-92
2023/02/14 08:43:40;;;;;;;23.42;16.30;;;2.70;99.90;;;;;;4868527;29;20061;-89
2023/02/14 08:46:05;;;;;;;37.65;24.98;;;2.80;99.90;;;;;;4869972;29;20051;-93
2023/02/14 08:48:32;;;;;;;25.92;17.63;;;2.80;99.90;;;;;;4883759;24;20120;-93
2023/02/14 08:50:58;;;;;;;33.92;22.33;;;2.90;99.90;;;;;;4904825;29;20115;-91
2023/02/14 08:53:29;;;;;;;34.17;22.77;;;2.90;99.90;;;;;;4903686;29;20519;-91
2023/02/14 08:55:55;;;;;;;29.25;20.15;;;3.00;99.90;;;;;;4887541;29;20096;-90
2023/02/14 08:58:21;;;;;;;23.15;16.55;;;3.00;99.90;;;;;;4904054;29;20520;-91
2023/02/14 09:00:46;;;;;;;27.30;18.33;;;3.10;99.90;;;;;;4887301;29;20044;-92
2023/02/14 09:03:15;;;;;;;24.02;17.30;;;3.20;99.90;;;;;;4888064;29;20386;-91
2023/02/14 09:05:41;;;;;;;30.05;21.15;;;3.20;99.90;;;;;;4904258;29;20497;-92
2023/02/14 09:08:10;;;;;;;29.13;20.75;;;3.20;99.90;;;;;;4894427;29;20047;-93
2023/02/14 09:10:39;;;;;;;32.25;23.45;;;3.20;99.90;;;;;;4876481;29;20044;-91
2023/02/14 09:16:21;;;;;;;27.50;20.63;;;3.40;99.90;;;;;;4887274;29;20049;-92
2023/02/14 09:18:53;;;;;;;27.60;18.50;;;3.50;99.90;;;;;;4871498;29;20131;-92
2023/02/14 09:21:31;;;;;;;28.97;19.60;;;3.60;99.90;;;;;;4886016;29;20051;-91
2023/02/14 09:23:59;;;;;;;33.72;24.55;;;3.60;99.90;;;;;;4887126;29;20041;-90
2023/02/14 09:26:31;;;;;;;25.55;18.30;;;3.70;99.90;;;;;;4891606;29;20397;-90
2023/02/14 09:29:00;;;;;;;26.05;18.70;;;3.80;99.90;;;;;;4830578;29;20580;-91
2023/02/14 09:31:25;;;;;;;29.58;20.15;;;3.80;99.90;;;;;;4842436;29;20156;-91
2023/02/14 09:33:57;;;;;;;29.00;20.83;;;3.90;99.90;;;;;;4827304;29;20550;-91
2023/02/14 09:39:16;;;;;;;25.40;18.63;;;4.10;99.90;;;;;;4837206;29;20088;-90
2023/02/14 09:42:12;;;;;;;28.98;21.58;;;4.10;99.90;;;;;;4808954;29;20050;-91
2023/02/14 09:45:24;;;;;;;30.80;22.42;;;4.20;99.90;;;;;;4823706;29;20042;-90
2023/02/14 09:48:18;;;;;;;25.33;18.35;;;4.30;99.90;;;;;;4841389;23;20049;-91
2023/02/14 09:50:52;;;;;;;24.58;18.63;;;4.30;99.90;;;;;;4883859;29;20107;-91
2023/02/14 09:53:28;;;;;;;27.35;21.35;;;4.40;99.90;;;;;;4874263;23;20068;-90
2023/02/14 09:56:10;;;;;;;33.35;23.55;;;4.50;99.90;;;;;;4858746;29;20400;-89
2023/02/14 09:59:08;;;;;;;35.05;25.83;;;4.60;99.90;;;;;;4841383;29;20049;-90
2023/02/14 10:01:45;;;;;;;38.90;24.60;;;4.70;99.90;;;;;;4861984;29;20045;-90
2023/02/14 10:04:52;;;;;;;30.95;23.85;;;4.80;99.90;;;;;;4862320;29;20406;-90
2023/02/14 10:07:41;;;;;;;32.15;23.92;;;4.90;99.90;;;;;;4843104;29;20114;-90
2023/02/14 10:10:46;;;;;;;32.92;24.48;;;5.00;99.90;;;;;;4828031;29;20636;-90
2023/02/14 10:14:00;;;;;;;30.42;23.10;;;5.10;99.90;;;;;;4830076;29;20047;-90
2023/02/14 10:17:00;;;;;;;35.45;25.77;;;5.20;99.90;;;;;;4830969;29;20057;-91
2023/02/14 10:19:47;;;;;;;36.60;25.90;;;5.30;99.90;;;;;;4846441;29;20105;-90
2023/02/14 10:22:18;;;;;;;39.35;28.45;;;5.40;99.90;;;;;;4861267;29;20128;-89
2023/02/14 10:24:50;;;;;;;32.75;24.73;;;5.50;99.90;;;;;;4861463;29;20053;-90
2023/02/14 10:27:39;;;;;;;37.42;26.50;;;5.50;99.90;;;;;;4860278;29;20091;-90
2023/02/14 10:30:19;;;;;;;38.90;26.27;;;5.60;99.90;;;;;;4827291;29;20050;-89
2023/02/14 10:33:17;;;;;;;37.08;26.10;;;5.70;99.90;;;;;;4856413;29;20042;-90
2023/02/14 10:35:46;;;;;;;38.65;27.88;;;5.80;99.90;;;;;;4862611;29;20081;-92
2023/02/14 10:38:34;;;;;;;38.28;27.73;;;5.90;99.90;;;;;;4846154;29;20045;-90
2023/02/14 10:41:08;;;;;;;35.85;27.98;;;6.00;99.90;;;;;;4843806;29;20053;-91
2023/02/14 10:43:57;;;;;;;35.65;26.73;;;6.10;99.90;;;;;;4842992;29;20045;-91
2023/02/14 10:46:41;;;;;;;36.55;26.35;;;6.20;99.90;;;;;;4843033;29;20045;-91
2023/02/14 10:49:15;;;;;;;38.33;28.02;;;6.30;99.90;;;;;;4844709;29;20050;-91
2023/02/14 10:51:58;;;;;;;35.45;26.42;;;6.30;99.90;;;;;;4867383;29;20157;-88
2023/02/14 10:54:27;;;;;;;41.53;28.08;;;6.50;99.90;;;;;;4844583;29;20136;-88
2023/02/14 10:57:04;;;;;;;39.28;27.73;;;6.60;99.90;;;;;;4861519;29;20049;-86
2023/02/14 10:59:38;;;;;;;39.17;28.67;;;6.70;99.90;;;;;;4845797;29;20038;-88
2023/02/14 11:02:05;;;;;;;37.25;26.50;;;6.80;99.90;;;;;;4863306;29;20045;-93
2023/02/14 11:04:31;;;;;;;37.72;27.70;;;6.90;99.90;;;;;;4853264;29;20046;-89
2023/02/14 11:06:57;;;;;;;38.42;28.60;;;7.00;99.90;;;;;;4862047;29;20051;-89
2023/02/14 11:09:23;;;;;;;35.58;27.58;;;7.00;99.90;;;;;;4852460;29;20045;-91
2023/02/14 11:11:59;;;;;;;33.72;25.92;;;7.10;99.90;;;;;;4847448;29;20152;-90
2023/02/14 11:14:34;;;;;;;35.20;26.02;;;7.20;99.90;;;;;;4866696;29;20068;-91
2023/02/14 11:17:27;;;;;;;37.55;26.85;;;7.30;99.90;;;;;;4845592;29;20387;-91
2023/02/14 11:20:21;;;;;;;33.92;25.80;;;7.40;99.90;;;;;;4845224;29;20080;-91
2023/02/14 11:22:48;;;;;;;35.10;27.00;;;7.50;99.90;;;;;;4839883;29;20113;-91
2023/02/14 11:25:26;;;;;;;35.90;26.60;;;7.60;99.90;;;;;;4859528;29;20483;-90
2023/02/14 11:28:01;;;;;;;35.65;26.80;;;7.60;99.90;;;;;;4843070;29;20049;-91
2023/02/14 11:30:41;;;;;;;39.00;27.75;;;7.70;99.90;;;;;;4846018;29;20041;-92
2023/02/14 11:33:33;;;;;;;35.88;25.80;;;7.80;99.90;;;;;;4853484;29;20125;-91
2023/02/14 11:36:01;;;;;;;36.55;27.02;;;7.90;99.90;;;;;;4846323;29;20045;-92
2023/02/14 11:38:37;;;;;;;34.15;26.90;;;7.90;99.90;;;;;;4854758;29;20097;-89
2023/02/14 11:41:05;;;;;;;40.70;27.25;;;8.10;99.90;;;;;;4843588;29;20045;-91
2023/02/14 11:43:40;;;;;;;38.38;27.40;;;8.10;99.90;;;;;;4840593;29;20133;-90
2023/02/14 11:46:14;;;;;;;40.22;26.92;;;8.20;99.90;;;;;;4846174;29;20391;-91
2023/02/14 11:49:00;;;;;;;;;;;8.30;99.90;;;;;;4861434;29;20058;-89
2023/02/14 11:51:29;;;;;;;37.42;26.40;;;8.30;99.90;;;;;;4834677;29;19983;-90
2023/02/14 11:54:03;;;;;;;38.35;27.60;;;8.50;99.90;;;;;;4843829;29;20050;-89
2023/02/14 11:57:04;;;;;;;36.78;27.20;;;8.50;99.90;;;;;;4846173;29;20052;-90
2023/02/14 11:59:52;;;;;;;37.42;26.13;;;8.60;99.90;;;;;;4793077;29;20049;-90
2023/02/14 12:02:25;;;;;;;38.67;27.77;;;8.70;99.90;;;;;;4861602;29;20160;-91
2023/02/14 12:05:03;;;;;;;36.70;26.83;;;8.80;99.90;;;;;;4911533;23;20056;-91
2023/02/14 12:07:37;;;;;;;40.25;28.45;;;8.80;99.90;;;;;;4902167;29;20044;-90
2023/02/14 12:10:14;;;;;;;37.92;27.27;;;8.90;99.90;;;;;;4882002;29;20040;-91
2023/02/14 12:13:02;;;;;;;36.05;26.77;;;9.00;99.90;;;;;;4888296;29;20048;-90
2023/02/14 12:15:41;;;;;;;37.40;27.23;;;9.10;99.90;;;;;;4883226;29;20045;-89
2023/02/14 12:18:19;;;;;;;39.45;27.52;;;9.20;99.90;;;;;;4888948;29;20044;-91
2023/02/14 12:20:58;;;;;;;39.13;28.20;;;9.30;99.90;;;;;;4881954;29;20457;-89
2023/02/14 12:23:48;;;;;;;37.40;27.90;;;9.40;99.90;;;;;;4895861;29;20060;-89
2023/02/14 12:26:31;;;;;;;36.15;27.17;;;9.50;99.90;;;;;;4869929;29;20088;-87
2023/02/14 12:29:13;;;;;;;33.08;26.20;;;9.50;99.90;;;;;;4892805;29;20055;-88
2023/02/14 12:31:39;;;;;;;40.40;28.90;;;9.60;99.90;;;;;;4881707;29;20520;-87
2023/02/14 12:34:10;;;;;;;38.67;28.38;;;9.70;99.90;;;;;;4882874;29;20049;-88
2023/02/14 12:37:03;;;;;;;37.83;27.40;;;9.80;99.90;;;;;;4880920;29;20052;-88
2023/02/14 12:40:00;;;;;;;35.10;26.30;;;9.90;99.90;;;;;;4889466;29;20048;-88
2023/02/14 12:43:09;;;;;;;36.72;26.55;;;9.90;99.90;;;;;;4915888;29;20122;-88
2023/02/14 12:46:02;;;;;;;38.58;26.65;;;10.00;99.90;;;;;;4885741;29;20147;-89
2023/02/14 12:48:48;;;;;;;38.80;28.10;;;10.10;99.90;;;;;;4894800;29;20049;-89
2023/02/14 12:51:34;;;;;;;35.50;28.10;;;10.10;99.90;;;;;;4905525;29;20047;-87
2023/02/14 12:54:18;;;;;;;37.65;27.63;;;10.20;99.90;;;;;;4901397;29;20051;-88
2023/02/14 12:57:03;;;;;;;42.55;28.33;;;10.20;99.90;;;;;;4881302;29;21546;-87
2023/02/14 12:59:53;;;;;;;39.88;27.58;;;10.30;99.90;;;;;;4866041;23;20494;-88
2023/02/14 13:03:06;;;;;;;36.13;26.90;;;10.40;99.90;;;;;;4847993;29;20049;-89
2023/02/14 13:05:55;;;;;;;39.45;28.30;;;10.50;99.90;;;;;;4868310;29;20053;-88
2023/02/14 13:08:21;;;;;;;37.10;27.63;;;10.50;99.90;;;;;;4878017;29;20084;-88
2023/02/14 13:11:20;;;;;;;38.97;27.73;;;10.60;99.90;;;;;;4881580;29;20080;-86
2023/02/14 13:14:07;;;;;;;38.88;28.45;;;10.60;99.90;;;;;;4877617;29;20045;-87
2023/02/14 13:16:39;;;;;;;35.83;27.55;;;10.70;99.90;;;;;;4879143;29;20049;-87
2023/02/14 13:19:38;;;;;;;35.85;26.85;;;10.80;99.90;;;;;;4862559;29;20485;-87
2023/02/14 13:22:05;;;;;;;34.92;26.63;;;10.80;99.90;;;;;;4853077;29;20049;-87
2023/02/14 13:24:56;;;;;;;39.47;27.15;;;10.90;99.90;;;;;;4860056;29;20528;-88